Time;durP1;ratioP1;P1;durP2;ratioP2;P2;SDS_P1;SDS_P2;PMS_P1;PMS_P2;Temp;Humidity;BMP_temperature;BMP_pressure;BME280_temperature;BME280_humidity;BME280_pressure;Samples;Min_cycle;Max_cycle;Signal;HPM_P1;HPM_P2
2023/08/06 00:00:22;;;;;;;0.52;0.52;;;15.10;99.90;;;;;;4964434;28;20054;-90
2023/08/06 00:02:48;;;;;;;0.60;0.60;;;15.10;99.90;;;;;;4961774;28;20056;-90
2023/08/06 00:05:17;;;;;;;0.60;0.60;;;14.60;99.90;;;;;;4959771;28;20077;-88
2023/08/06 00:07:44;;;;;;;0.60;0.60;;;14.70;99.90;;;;;;4974759;28;20409;-88
2023/08/06 00:10:10;;;;;;;0.60;0.60;;;15.10;99.90;;;;;;4964601;28;20046;-90
2023/08/06 00:12:36;;;;;;;0.55;0.55;;;15.00;99.90;;;;;;4965786;28;20053;-90
2023/08/06 00:15:02;;;;;;;0.60;0.60;;;14.60;99.90;;;;;;4979458;28;20125;-90
2023/08/06 00:17:27;;;;;;;0.60;0.60;;;14.90;99.90;;;;;;4970464;28;20047;-88
2023/08/06 00:19:53;;;;;;;0.60;0.60;;;15.10;99.90;;;;;;4979433;28;20106;-88
2023/08/06 00:22:19;;;;;;;0.60;0.60;;;15.00;99.90;;;;;;4962420;28;20046;-89
2023/08/06 00:24:44;;;;;;;0.60;0.60;;;14.60;99.90;;;;;;4978362;28;20053;-90
2023/08/06 00:27:10;;;;;;;0.57;0.57;;;14.40;99.90;;;;;;4963968;28;20784;-91
2023/08/06 00:29:36;;;;;;;0.60;0.60;;;15.00;99.90;;;;;;4981430;28;20046;-90
2023/08/06 00:32:01;;;;;;;0.60;0.60;;;14.50;99.90;;;;;;4970942;28;20096;-89
2023/08/06 00:34:27;;;;;;;0.60;0.60;;;14.50;99.90;;;;;;4968921;28;20108;-87
2023/08/06 00:36:54;;;;;;;0.60;0.60;;;14.80;99.90;;;;;;4976637;28;20073;-88
2023/08/06 00:39:19;;;;;;;0.60;0.60;;;14.50;99.90;;;;;;4967126;28;20542;-91
2023/08/06 00:41:45;;;;;;;0.60;0.60;;;14.60;99.90;;;;;;4983837;28;20077;-91
2023/08/06 00:44:14;;;;;;;0.60;0.60;;;15.00;99.90;;;;;;4963618;28;20362;-92
2023/08/06 00:46:40;;;;;;;0.60;0.60;;;14.90;99.90;;;;;;4969328;28;20065;-92
2023/08/06 00:49:06;;;;;;;0.60;0.60;;;14.30;99.90;;;;;;4961784;28;20054;-87
2023/08/06 00:51:32;;;;;;;0.60;0.60;;;14.90;99.90;;;;;;4983536;28;20488;-89
2023/08/06 00:53:58;;;;;;;0.60;0.60;;;14.30;99.90;;;;;;4979254;28;20047;-90
2023/08/06 00:56:25;;;;;;;0.60;0.60;;;14.90;99.90;;;;;;4959161;28;20053;-91
2023/08/06 00:58:50;;;;;;;0.65;0.65;;;14.70;99.90;;;;;;4960757;28;20077;-90
2023/08/06 01:01:16;;;;;;;0.60;0.60;;;14.30;99.90;;;;;;4965356;28;20074;-89
2023/08/06 01:03:42;;;;;;;0.60;0.60;;;14.40;99.90;;;;;;4964456;28;20491;-91
2023/08/06 01:06:08;;;;;;;0.60;0.60;;;14.40;99.90;;;;;;4983050;28;20050;-91
2023/08/06 01:08:58;;;;;;;0.60;0.60;;;14.50;99.90;;;;;;4966359;28;20054;-89
2023/08/06 01:11:42;;;;;;;0.60;0.60;;;14.40;99.90;;;;;;4980608;28;20046;-90
2023/08/06 01:14:23;;;;;;;0.60;0.60;;;14.80;99.90;;;;;;4977221;28;20530;-91
2023/08/06 01:16:51;;;;;;;0.60;0.60;;;14.20;99.90;;;;;;4976093;28;20492;-89
2023/08/06 01:19:18;;;;;;;0.60;0.60;;;14.40;99.90;;;;;;4961848;28;20050;-88
2023/08/06 01:21:43;;;;;;;0.60;0.60;;;14.50;99.90;;;;;;4962800;28;20045;-90
2023/08/06 01:24:09;;;;;;;0.60;0.60;;;14.10;99.90;;;;;;4982101;28;20154;-90
2023/08/06 01:26:54;;;;;;;0.60;0.60;;;14.50;99.90;;;;;;4964790;28;20102;-89
2023/08/06 01:29:31;;;;;;;0.60;0.60;;;14.10;99.90;;;;;;4987844;28;20045;-89
2023/08/06 01:31:58;;;;;;;0.60;0.60;;;14.20;99.90;;;;;;4961364;28;20567;-90
2023/08/06 01:34:27;;;;;;;0.60;0.60;;;14.80;99.90;;;;;;4964001;28;20046;-89
2023/08/06 01:36:53;;;;;;;0.60;0.60;;;14.50;99.90;;;;;;4964758;28;20051;-89
2023/08/06 01:39:25;;;;;;;0.60;0.60;;;14.80;99.90;;;;;;4984616;28;20466;-89
2023/08/06 01:41:51;;;;;;;0.60;0.60;;;14.60;99.90;;;;;;4983272;28;20051;-89
2023/08/06 01:44:16;;;;;;;0.70;0.70;;;14.70;99.90;;;;;;4980813;28;20051;-91
2023/08/06 01:46:42;;;;;;;0.60;0.60;;;14.20;99.90;;;;;;4981060;28;20129;-92
2023/08/06 01:49:08;;;;;;;0.60;0.60;;;14.20;99.90;;;;;;5004088;28;20101;-89
2023/08/06 01:51:34;;;;;;;0.60;0.60;;;14.90;99.90;;;;;;4981535;28;20047;-92
2023/08/06 01:53:59;;;;;;;0.60;0.60;;;14.20;99.90;;;;;;4961316;28;20109;-91
2023/08/06 01:56:25;;;;;;;0.60;0.60;;;14.50;99.90;;;;;;4962934;28;20046;-91
2023/08/06 01:58:51;;;;;;;0.60;0.60;;;14.30;99.90;;;;;;4961523;28;20142;-90
2023/08/06 02:01:17;;;;;;;0.60;0.60;;;14.30;99.90;;;;;;4966942;28;20081;-90
2023/08/06 02:03:42;;;;;;;0.60;0.60;;;14.70;99.90;;;;;;4976233;28;20464;-89
2023/08/06 02:06:08;;;;;;;0.70;0.70;;;14.40;99.90;;;;;;4958571;28;20041;-89
2023/08/06 02:08:34;;;;;;;0.60;0.60;;;14.70;99.90;;;;;;4964014;28;20070;-90
2023/08/06 02:11:00;;;;;;;0.60;0.60;;;14.90;99.90;;;;;;4981453;28;20034;-90
2023/08/06 02:13:25;;;;;;;0.60;0.60;;;14.60;99.90;;;;;;4967849;28;20100;-90
2023/08/06 02:15:51;;;;;;;0.60;0.60;;;14.90;99.90;;;;;;4960417;28;20047;-90
2023/08/06 02:18:17;;;;;;;0.60;0.60;;;14.90;99.90;;;;;;4958874;28;20054;-90
2023/08/06 02:20:43;;;;;;;0.60;0.60;;;14.70;99.90;;;;;;4973476;28;20046;-91
2023/08/06 02:23:09;;;;;;;0.60;0.60;;;14.50;99.90;;;;;;4983289;28;20039;-90
2023/08/06 02:25:35;;;;;;;0.60;0.60;;;14.90;99.90;;;;;;4967675;28;20547;-91
2023/08/06 02:28:01;;;;;;;0.60;0.60;;;14.60;99.90;;;;;;4964877;28;20491;-90
2023/08/06 02:30:27;;;;;;;0.60;0.60;;;14.40;99.90;;;;;;4966282;28;20042;-91
2023/08/06 02:32:52;;;;;;;0.60;0.60;;;14.40;99.90;;;;;;4967277;28;20141;-90
2023/08/06 02:35:18;;;;;;;0.60;0.60;;;14.30;99.90;;;;;;4963708;28;20047;-90
2023/08/06 02:37:44;;;;;;;0.50;0.50;;;14.40;99.90;;;;;;4966638;28;20077;-90
2023/08/06 02:40:10;;;;;;;0.60;0.60;;;14.40;99.90;;;;;;4966944;28;20101;-91
2023/08/06 02:42:35;;;;;;;0.60;0.60;;;14.70;99.90;;;;;;4981436;28;20050;-89
2023/08/06 02:45:01;;;;;;;0.50;0.50;;;14.80;99.90;;;;;;4959195;28;20046;-87
2023/08/06 02:47:53;;;;;;;0.60;0.60;;;14.90;99.90;;;;;;4962376;28;20042;-94
2023/08/06 02:50:19;;;;;;;0.60;0.60;;;14.20;99.90;;;;;;4961397;28;20053;-92
2023/08/06 02:52:45;;;;;;;0.50;0.50;;;14.20;99.90;;;;;;4961699;28;20419;-92
2023/08/06 02:55:10;;;;;;;0.60;0.60;;;14.70;99.90;;;;;;4967635;28;20058;-92
2023/08/06 02:57:36;;;;;;;0.60;0.60;;;14.10;99.90;;;;;;4963474;28;20093;-93
2023/08/06 03:00:06;;;;;;;0.50;0.50;;;14.10;99.90;;;;;;4963421;28;20056;-91
2023/08/06 03:02:31;;;;;;;0.60;0.60;;;14.60;99.90;;;;;;4978886;28;20495;-90
2023/08/06 03:04:57;;;;;;;0.60;0.60;;;14.70;99.90;;;;;;4967297;28;20069;-91
2023/08/06 03:07:23;;;;;;;0.60;0.60;;;14.30;99.90;;;;;;4961767;28;20392;-91
2023/08/06 03:09:49;;;;;;;0.60;0.60;;;14.20;99.90;;;;;;4983554;28;20092;-92
2023/08/06 03:12:14;;;;;;;0.60;0.60;;;14.80;99.90;;;;;;4961304;28;20042;-90
2023/08/06 03:14:40;;;;;;;0.60;0.60;;;14.80;99.90;;;;;;4975888;28;20049;-89
2023/08/06 03:17:06;;;;;;;0.55;0.55;;;14.10;99.90;;;;;;4981221;28;20070;-91
2023/08/06 03:19:31;;;;;;;0.52;0.52;;;14.70;99.90;;;;;;4963037;28;20620;-89
2023/08/06 03:21:57;;;;;;;0.50;0.50;;;14.10;99.90;;;;;;4977677;28;20046;-89
2023/08/06 03:24:23;;;;;;;0.60;0.60;;;14.70;99.90;;;;;;4984723;28;20043;-90
2023/08/06 03:26:48;;;;;;;0.60;0.60;;;14.50;99.90;;;;;;4981002;28;20401;-90
2023/08/06 03:29:14;;;;;;;0.60;0.60;;;14.50;99.90;;;;;;4964572;28;20058;-92
2023/08/06 03:31:40;;;;;;;0.50;0.50;;;14.30;99.90;;;;;;4963451;28;20057;-92
2023/08/06 03:34:06;;;;;;;0.50;0.50;;;14.90;99.90;;;;;;4967505;28;20050;-91
2023/08/06 03:36:32;;;;;;;0.60;0.60;;;14.70;99.90;;;;;;4966054;28;20456;-92
2023/08/06 03:38:57;;;;;;;0.50;0.50;;;14.20;99.90;;;;;;4969915;28;20299;-91
2023/08/06 03:41:23;;;;;;;0.60;0.60;;;14.70;99.90;;;;;;4964613;28;20097;-94
2023/08/06 03:43:49;;;;;;;0.60;0.60;;;14.80;99.90;;;;;;4968995;28;20043;-90
2023/08/06 03:46:15;;;;;;;0.50;0.50;;;14.70;99.90;;;;;;4980915;28;20049;-93
2023/08/06 03:48:40;;;;;;;0.60;0.60;;;14.80;99.90;;;;;;4963906;28;20049;-92
2023/08/06 03:51:06;;;;;;;0.60;0.60;;;14.30;99.90;;;;;;4980856;28;20819;-92
2023/08/06 03:53:32;;;;;;;0.50;0.50;;;14.50;99.90;;;;;;4964440;28;20054;-89
2023/08/06 03:55:59;;;;;;;0.60;0.60;;;14.30;99.90;;;;;;4984020;28;20046;-92
2023/08/06 03:58:26;;;;;;;0.50;0.50;;;14.80;99.90;;;;;;4983067;28;20050;-91
2023/08/06 04:01:02;;;;;;;0.50;0.50;;;14.60;99.90;;;;;;4969103;28;20042;-89
2023/08/06 04:03:28;;;;;;;0.57;0.57;;;14.30;99.90;;;;;;5006618;28;20050;-92
2023/08/06 04:05:54;;;;;;;0.60;0.60;;;14.30;99.90;;;;;;4959901;28;20143;-91
2023/08/06 04:08:20;;;;;;;0.60;0.60;;;14.80;99.90;;;;;;4964800;28;20077;-92
2023/08/06 04:10:50;;;;;;;0.57;0.57;;;14.60;99.90;;;;;;4963978;28;20071;-91
2023/08/06 04:13:16;;;;;;;0.50;0.50;;;14.40;99.90;;;;;;4964458;28;20054;-92
2023/08/06 04:15:42;;;;;;;0.60;0.60;;;14.70;99.90;;;;;;4986414;28;20043;-89
2023/08/06 04:18:08;;;;;;;0.50;0.50;;;14.20;99.90;;;;;;4981267;28;20063;-92
2023/08/06 04:20:36;;;;;;;0.60;0.60;;;14.70;99.90;;;;;;4969226;28;20047;-92
2023/08/06 04:23:16;;;;;;;0.60;0.60;;;14.30;99.90;;;;;;4969122;28;20051;-91
2023/08/06 04:25:42;;;;;;;0.60;0.60;;;14.60;99.90;;;;;;4969441;28;20415;-90
2023/08/06 04:28:08;;;;;;;0.60;0.60;;;14.50;99.90;;;;;;4965224;28;20050;-90
2023/08/06 04:30:34;;;;;;;0.60;0.60;;;14.70;99.90;;;;;;4966156;28;20797;-89
2023/08/06 04:32:59;;;;;;;0.57;0.57;;;14.90;99.90;;;;;;4963765;28;20046;-89
2023/08/06 04:35:25;;;;;;;0.55;0.55;;;15.00;99.90;;;;;;4966716;28;20662;-91
2023/08/06 04:37:51;;;;;;;0.55;0.55;;;14.30;99.90;;;;;;4966414;28;20083;-90
2023/08/06 04:40:16;;;;;;;0.50;0.50;;;14.50;99.90;;;;;;4979676;28;20039;-91
2023/08/06 04:42:45;;;;;;;0.70;0.70;;;14.30;99.90;;;;;;4968481;28;20039;-92
2023/08/06 04:45:10;;;;;;;0.60;0.60;;;14.70;99.90;;;;;;4982549;28;20061;-91
2023/08/06 04:47:36;;;;;;;0.60;0.60;;;15.00;99.90;;;;;;4966495;28;20728;-91
2023/08/06 04:50:02;;;;;;;0.60;0.60;;;15.00;99.90;;;;;;4973342;28;20074;-90
2023/08/06 04:52:28;;;;;;;0.60;0.60;;;14.80;99.90;;;;;;4964557;28;20604;-90
2023/08/06 04:54:54;;;;;;;0.60;0.60;;;14.80;99.90;;;;;;4984983;28;20143;-91
2023/08/06 04:57:20;;;;;;;0.63;0.63;;;15.20;99.90;;;;;;4983458;28;20398;-89
2023/08/06 04:59:46;;;;;;;0.60;0.60;;;14.70;99.90;;;;;;4969398;28;20046;-90
2023/08/06 05:02:12;;;;;;;0.60;0.60;;;15.00;99.90;;;;;;4988788;28;20039;-91
2023/08/06 05:04:38;;;;;;;0.63;0.63;;;15.30;99.90;;;;;;4981791;28;20061;-90
2023/08/06 05:07:05;;;;;;;0.70;0.70;;;15.50;99.90;;;;;;4963487;28;20054;-91
2023/08/06 05:09:30;;;;;;;0.80;0.80;;;15.70;99.90;;;;;;4969299;28;20049;-90
2023/08/06 05:11:56;;;;;;;0.70;0.70;;;15.90;99.90;;;;;;4981871;28;20042;-90
2023/08/06 05:14:22;;;;;;;0.80;0.80;;;16.20;99.90;;;;;;4967423;28;20557;-92
2023/08/06 05:16:48;;;;;;;0.90;0.90;;;16.50;99.90;;;;;;4985703;28;20046;-89
2023/08/06 05:19:13;;;;;;;0.80;0.80;;;16.20;99.90;;;;;;4980541;28;20117;-91
2023/08/06 05:21:39;;;;;;;0.73;0.73;;;15.60;99.90;;;;;;4968381;28;20046;-89
2023/08/06 05:24:05;;;;;;;0.90;0.90;;;15.90;99.90;;;;;;4985811;28;20050;-90
2023/08/06 05:26:30;;;;;;;0.90;0.90;;;15.60;99.90;;;;;;4970660;28;20043;-89
2023/08/06 05:28:56;;;;;;;0.90;0.90;;;15.70;99.90;;;;;;4985523;28;20039;-90
2023/08/06 05:31:22;;;;;;;0.80;0.80;;;15.70;99.90;;;;;;4968473;28;20096;-90
2023/08/06 05:33:47;;;;;;;0.82;0.82;;;15.60;99.90;;;;;;4962489;28;20096;-90
2023/08/06 05:36:13;;;;;;;0.80;0.80;;;15.60;99.90;;;;;;4984883;28;20039;-91
2023/08/06 05:38:39;;;;;;;0.80;0.80;;;15.40;99.90;;;;;;5002717;28;20050;-89
2023/08/06 05:41:04;;;;;;;0.90;0.90;;;15.20;99.90;;;;;;4981917;28;20038;-91
2023/08/06 05:43:30;;;;;;;0.80;0.80;;;14.90;99.90;;;;;;4978427;28;20051;-90
2023/08/06 05:45:56;;;;;;;0.80;0.80;;;15.00;99.90;;;;;;4964776;28;20039;-89
2023/08/06 05:48:24;;;;;;;0.80;0.80;;;15.00;99.90;;;;;;4982572;28;20116;-90
2023/08/06 05:50:50;;;;;;;0.80;0.80;;;15.40;99.90;;;;;;4982643;28;20447;-89
2023/08/06 05:53:16;;;;;;;0.80;0.80;;;15.30;99.90;;;;;;4967411;28;20042;-89
2023/08/06 05:55:41;;;;;;;0.80;0.80;;;15.20;99.90;;;;;;4964569;28;20396;-90
2023/08/06 05:58:10;;;;;;;0.70;0.70;;;15.30;99.90;;;;;;4966231;28;20505;-90
2023/08/06 06:00:35;;;;;;;0.75;0.75;;;15.30;99.90;;;;;;4979661;28;20093;-89
2023/08/06 06:03:02;;;;;;;0.80;0.80;;;15.20;99.90;;;;;;4964846;28;20042;-89
2023/08/06 06:05:28;;;;;;;0.80;0.80;;;15.00;99.90;;;;;;4961260;28;20050;-89
2023/08/06 06:07:54;;;;;;;0.68;0.68;;;15.00;99.90;;;;;;4980217;28;20260;-92
2023/08/06 06:10:19;;;;;;;0.77;0.77;;;15.10;99.90;;;;;;4962852;28;20038;-89
2023/08/06 06:12:45;;;;;;;0.80;0.80;;;15.10;99.90;;;;;;4965223;28;20104;-89
2023/08/06 06:15:11;;;;;;;0.70;0.70;;;15.30;99.90;;;;;;4979436;28;20042;-89
2023/08/06 06:17:36;;;;;;;0.80;0.80;;;15.20;99.90;;;;;;4967253;28;20054;-89
2023/08/06 06:20:04;;;;;;;0.70;0.70;;;15.10;99.90;;;;;;4981533;28;20041;-91
2023/08/06 06:22:30;;;;;;;0.70;0.70;;;15.10;99.90;;;;;;4967419;28;20072;-90
2023/08/06 06:24:55;;;;;;;0.85;0.85;;;15.40;99.90;;;;;;4983288;28;20042;-90
2023/08/06 06:27:21;;;;;;;0.77;0.77;;;15.20;99.90;;;;;;4967097;28;20452;-93
2023/08/06 06:29:47;;;;;;;0.80;0.80;;;15.70;99.90;;;;;;4966788;28;20050;-90
2023/08/06 06:32:13;;;;;;;0.70;0.70;;;15.30;99.90;;;;;;4979025;28;20049;-89
2023/08/06 06:34:38;;;;;;;0.80;0.80;;;15.40;99.90;;;;;;4962179;28;20475;-91
2023/08/06 06:37:04;;;;;;;0.80;0.80;;;15.60;99.90;;;;;;4962843;28;20404;-90
2023/08/06 06:39:30;;;;;;;0.80;0.80;;;15.90;99.90;;;;;;4964551;28;20074;-91
2023/08/06 06:41:56;;;;;;;0.70;0.70;;;16.10;99.90;;;;;;4967781;28;20052;-89
2023/08/06 06:44:22;;;;;;;0.70;0.70;;;16.10;99.90;;;;;;4983350;28;20107;-89
2023/08/06 06:46:47;;;;;;;0.70;0.70;;;15.80;99.90;;;;;;4983226;28;20742;-90
2023/08/06 06:49:13;;;;;;;0.60;0.60;;;16.10;99.90;;;;;;4986424;28;20059;-91
2023/08/06 06:51:39;;;;;;;0.60;0.60;;;16.30;99.90;;;;;;4961766;28;20042;-90
2023/08/06 06:54:04;;;;;;;0.70;0.70;;;16.30;99.90;;;;;;4962094;28;20051;-89
2023/08/06 06:56:30;;;;;;;0.70;0.70;;;16.10;99.90;;;;;;4966008;28;20038;-89
2023/08/06 06:58:56;;;;;;;0.60;0.60;;;16.20;99.90;;;;;;4960493;28;20066;-88
2023/08/06 07:01:21;;;;;;;0.60;0.60;;;16.60;99.90;;;;;;4958260;28;20444;-91
2023/08/06 07:03:47;;;;;;;0.60;0.60;;;16.40;99.90;;;;;;4979118;28;20070;-88
2023/08/06 07:06:18;;;;;;;0.60;0.60;;;16.30;99.90;;;;;;4978058;28;20614;-88
2023/08/06 07:08:44;;;;;;;0.60;0.60;;;16.70;99.90;;;;;;4959605;28;20086;-89
2023/08/06 07:11:10;;;;;;;0.60;0.60;;;16.70;99.90;;;;;;4979656;28;20047;-89
2023/08/06 07:13:36;;;;;;;0.60;0.60;;;16.90;99.90;;;;;;4982803;28;20627;-91
2023/08/06 07:16:02;;;;;;;0.60;0.60;;;16.80;99.90;;;;;;4961376;28;20043;-88
2023/08/06 07:18:29;;;;;;;0.70;0.70;;;16.80;99.90;;;;;;4979726;28;20109;-93
2023/08/06 07:20:57;;;;;;;0.60;0.60;;;16.80;99.90;;;;;;4976014;28;20057;-89
2023/08/06 07:23:25;;;;;;;0.70;0.70;;;16.90;99.90;;;;;;4976749;28;20481;-89
2023/08/06 07:25:51;;;;;;;0.70;0.70;;;17.10;99.90;;;;;;4978051;28;20045;-89
2023/08/06 07:28:17;;;;;;;0.70;0.70;;;16.90;99.90;;;;;;4958278;28;20043;-90
2023/08/06 07:30:44;;;;;;;0.70;0.70;;;17.10;99.90;;;;;;4964164;28;20129;-89
2023/08/06 07:33:10;;;;;;;0.80;0.80;;;16.90;99.90;;;;;;4976445;28;20050;-89
2023/08/06 07:35:37;;;;;;;0.80;0.80;;;16.90;99.90;;;;;;4984164;28;20057;-89
2023/08/06 07:38:03;;;;;;;0.75;0.75;;;16.70;99.90;;;;;;4968674;28;20046;-91
2023/08/06 07:40:29;;;;;;;0.75;0.75;;;16.90;99.90;;;;;;4982469;28;20502;-87
2023/08/06 07:42:55;;;;;;;0.70;0.70;;;17.00;99.90;;;;;;4983450;28;20057;-90
2023/08/06 07:45:20;;;;;;;0.80;0.80;;;17.00;99.90;;;;;;4962902;28;20131;-90
2023/08/06 07:47:46;;;;;;;0.80;0.80;;;17.00;99.90;;;;;;4965696;28;20113;-89
2023/08/06 07:50:13;;;;;;;0.70;0.70;;;17.10;99.90;;;;;;4981397;28;20042;-89
2023/08/06 07:52:38;;;;;;;0.80;0.80;;;17.30;99.90;;;;;;4965747;28;20047;-90
2023/08/06 07:55:07;;;;;;;0.70;0.70;;;17.10;99.90;;;;;;4965501;28;20061;-90
2023/08/06 07:57:34;;;;;;;0.70;0.70;;;17.30;99.90;;;;;;4969823;28;20054;-93
2023/08/06 08:00:00;;;;;;;0.70;0.70;;;17.10;99.90;;;;;;4967101;28;20042;-90
2023/08/06 08:02:26;;;;;;;0.70;0.70;;;17.30;99.90;;;;;;4968982;28;20082;-91
2023/08/06 08:04:51;;;;;;;0.70;0.70;;;17.60;99.90;;;;;;4981531;28;20073;-90
2023/08/06 08:07:17;;;;;;;0.70;0.70;;;17.50;99.90;;;;;;4964872;28;20042;-89
2023/08/06 08:09:43;;;;;;;0.70;0.70;;;17.80;99.90;;;;;;4968495;28;20043;-90
2023/08/06 08:12:09;;;;;;;0.70;0.70;;;17.70;99.90;;;;;;4965888;28;20180;-90
2023/08/06 08:14:37;;;;;;;0.70;0.70;;;18.00;99.90;;;;;;4978885;28;20050;-91
2023/08/06 08:17:06;;;;;;;0.75;0.75;;;18.00;99.90;;;;;;4968369;28;20038;-90
2023/08/06 08:19:32;;;;;;;0.70;0.70;;;17.80;99.90;;;;;;4965692;28;20081;-90
2023/08/06 08:21:58;;;;;;;0.70;0.70;;;17.90;99.90;;;;;;4980456;28;20043;-90
2023/08/06 08:24:24;;;;;;;0.70;0.70;;;18.10;99.90;;;;;;4987251;28;20462;-92
2023/08/06 08:26:53;;;;;;;0.85;0.85;;;18.30;99.90;;;;;;4966141;28;20042;-89
2023/08/06 08:29:22;;;;;;;0.70;0.70;;;18.00;99.90;;;;;;4982977;28;20047;-90
2023/08/06 08:31:50;;;;;;;0.73;0.73;;;18.20;99.90;;;;;;4982896;28;20043;-94
2023/08/06 08:34:21;;;;;;;0.70;0.70;;;18.10;99.90;;;;;;4967812;28;20046;-92
2023/08/06 08:36:58;;;;;;;0.73;0.73;;;18.50;99.90;;;;;;4969063;28;20047;-94
2023/08/06 08:39:24;;;;;;;0.68;0.68;;;18.30;99.90;;;;;;4966707;28;20043;-91
2023/08/06 08:41:49;;;;;;;0.77;0.77;;;18.50;99.90;;;;;;4967811;28;20053;-91
2023/08/06 08:44:17;;;;;;;0.70;0.70;;;18.30;99.90;;;;;;4963832;28;20381;-91
2023/08/06 08:46:44;;;;;;;0.70;0.70;;;18.20;99.90;;;;;;4965938;28;20042;-91
2023/08/06 08:49:11;;;;;;;0.75;0.75;;;18.30;99.90;;;;;;4977621;28;20050;-92
2023/08/06 08:51:37;;;;;;;0.70;0.70;;;18.60;99.90;;;;;;4965482;28;20072;-91
2023/08/06 08:54:04;;;;;;;0.80;0.80;;;18.40;99.90;;;;;;4964882;28;20049;-92
2023/08/06 08:56:31;;;;;;;0.75;0.75;;;18.40;99.90;;;;;;4968749;28;20042;-91
2023/08/06 08:58:56;;;;;;;0.70;0.70;;;18.50;99.90;;;;;;4984850;28;20042;-90
2023/08/06 09:01:24;;;;;;;0.75;0.75;;;18.80;99.90;;;;;;4973405;28;20057;-90
2023/08/06 09:03:51;;;;;;;0.82;0.82;;;19.20;99.90;;;;;;4965592;28;20100;-91
2023/08/06 09:06:36;;;;;;;0.80;0.80;;;19.30;99.90;;;;;;4968557;28;20038;-91
2023/08/06 09:09:37;;;;;;;0.80;0.80;;;19.40;99.90;;;;;;4967037;28;20105;-91
2023/08/06 09:12:13;;;;;;;0.77;0.77;;;19.40;99.90;;;;;;4979352;28;20081;-93
2023/08/06 09:14:45;;;;;;;0.80;0.80;;;19.60;99.90;;;;;;4970207;28;20046;-94
2023/08/06 09:17:14;;;;;;;0.88;0.88;;;19.70;99.90;;;;;;4966644;28;20519;-92
2023/08/06 09:20:08;;;;;;;0.80;0.80;;;19.90;99.90;;;;;;4965009;28;20045;-93
2023/08/06 09:22:44;;;;;;;0.82;0.82;;;19.90;99.90;;;;;;4959608;28;20061;-95
2023/08/06 09:25:10;;;;;;;0.80;0.80;;;20.10;99.90;;;;;;4964264;28;20042;-91
2023/08/06 09:27:37;;;;;;;0.85;0.85;;;20.00;99.90;;;;;;4964474;28;20101;-89
2023/08/06 09:30:04;;;;;;;0.85;0.85;;;20.30;99.90;;;;;;4969996;28;20048;-91
2023/08/06 09:32:47;;;;;;;0.90;0.90;;;19.80;99.90;;;;;;4962995;28;20053;-91
2023/08/06 09:35:17;;;;;;;0.80;0.80;;;20.10;99.90;;;;;;4961954;28;20054;-90
2023/08/06 09:37:55;;;;;;;;;;;;;;;;;;;;;
2023/08/06 09:40:26;;;;;;;0.77;0.77;;;20.00;99.90;;;;;;4981807;28;20053;-93
2023/08/06 09:42:56;;;;;;;0.80;0.80;;;20.00;99.90;;;;;;4978670;28;20050;-93
2023/08/06 09:45:23;;;;;;;0.77;0.77;;;20.40;99.90;;;;;;4964121;28;20046;-89
2023/08/06 09:47:58;;;;;;;0.85;0.85;;;20.00;99.90;;;;;;4982788;28;20051;-86
2023/08/06 09:50:33;;;;;;;0.90;0.90;;;20.50;99.90;;;;;;4966755;28;20053;-91
2023/08/06 09:53:00;;;;;;;0.80;0.80;;;20.50;99.90;;;;;;4966253;28;20050;-92
2023/08/06 09:55:34;;;;;;;0.85;0.85;;;20.60;99.90;;;;;;4965670;28;20046;-96
2023/08/06 09:58:33;;;;;;;0.70;0.70;;;20.70;99.90;;;;;;4965831;28;20058;-95
2023/08/06 10:01:01;;;;;;;0.95;0.95;;;21.20;99.90;;;;;;4957300;28;20072;-91
2023/08/06 10:03:29;;;;;;;0.93;0.93;;;21.40;99.90;;;;;;4982937;28;20046;-91
2023/08/06 10:06:06;;;;;;;0.93;0.93;;;21.70;99.90;;;;;;4955563;28;20507;-90
2023/08/06 10:08:32;;;;;;;0.98;0.98;;;21.70;99.90;;;;;;4968112;28;20043;-93
2023/08/06 10:11:04;;;;;;;0.88;0.88;;;21.40;99.90;;;;;;4967241;28;20042;-94
2023/08/06 10:13:30;;;;;;;0.88;0.88;;;21.40;99.90;;;;;;4962239;28;20046;-92
2023/08/06 10:15:56;;;;;;;0.93;0.93;;;21.30;99.90;;;;;;4966031;28;20090;-91
2023/08/06 10:18:29;;;;;;;0.85;0.85;;;21.40;99.90;;;;;;4965280;28;20053;-95
2023/08/06 10:20:55;;;;;;;0.85;0.85;;;21.50;99.90;;;;;;4968823;28;20492;-91
2023/08/06 10:23:44;;;;;;;;;;;;;;;;;;;;;
2023/08/06 10:26:10;;;;;;;0.88;0.88;;;20.90;99.90;;;;;;4981487;28;20061;-92
2023/08/06 10:29:05;;;;;;;0.85;0.85;;;21.50;99.90;;;;;;4960877;28;20042;-93
2023/08/06 10:32:24;;;;;;;;;;;;;;;;;;;;;
2023/08/06 10:34:57;;;;;;;0.60;0.60;;;21.50;99.90;;;;;;4983744;28;20133;-90
2023/08/06 10:37:24;;;;;;;0.82;0.82;;;21.60;99.90;;;;;;4960514;28;20530;-91
2023/08/06 10:39:53;;;;;;;0.77;0.77;;;21.90;99.90;;;;;;4965474;28;20049;-90
2023/08/06 10:42:20;;;;;;;0.93;0.93;;;21.90;99.90;;;;;;4962257;28;20069;-90
2023/08/06 10:45:12;;;;;;;0.88;0.88;;;22.60;99.90;;;;;;4967888;28;20065;-94
2023/08/06 10:47:47;;;;;;;0.93;0.93;;;22.40;99.90;;;;;;4966375;28;20057;-93
2023/08/06 10:50:19;;;;;;;0.88;0.88;;;22.30;99.90;;;;;;4962412;28;20047;-96
2023/08/06 10:52:46;;;;;;;0.93;0.93;;;22.60;99.90;;;;;;4969528;28;20053;-94
2023/08/06 10:55:12;;;;;;;0.73;0.73;;;22.10;99.90;;;;;;4961747;28;20050;-93
2023/08/06 10:57:59;;;;;;;1.05;1.05;;;21.80;99.90;;;;;;4961269;28;20069;-96
2023/08/06 11:00:28;;;;;;;1.00;1.00;;;22.00;99.90;;;;;;4965914;28;20046;-94
2023/08/06 11:02:55;;;;;;;1.20;1.20;;;21.70;99.90;;;;;;4963955;28;20197;-89
2023/08/06 11:05:20;;;;;;;1.00;1.00;;;21.40;99.90;;;;;;4980211;28;20042;-95
2023/08/06 11:07:48;;;;;;;1.00;1.00;;;21.80;99.90;;;;;;5130779;23;20506;-93
2023/08/06 11:10:32;;;;;;;;;;;;;;;;;;;;;
2023/08/06 11:13:03;;;;;;;1.05;1.05;;;21.60;99.90;;;;;;4982822;28;20085;-93
2023/08/06 11:15:30;;;;;;;1.10;1.10;;;22.00;99.90;;;;;;4981791;28;20134;-92
2023/08/06 11:17:56;;;;;;;1.40;1.30;;;22.50;99.90;;;;;;4976355;28;20452;-90
2023/08/06 11:20:24;;;;;;;1.17;1.17;;;22.70;99.90;;;;;;4971374;28;20110;-88
2023/08/06 11:22:50;;;;;;;0.80;0.80;;;22.00;99.90;;;;;;4962601;28;20103;-90
2023/08/06 11:25:21;;;;;;;0.93;0.93;;;22.40;99.90;;;;;;4976481;28;20049;-96
2023/08/06 11:27:47;;;;;;;0.85;0.85;;;21.90;99.90;;;;;;4974813;28;20035;-89
2023/08/06 11:30:14;;;;;;;0.90;0.90;;;22.90;99.90;;;;;;4980369;28;20536;-92
2023/08/06 11:32:47;;;;;;;0.70;0.70;;;22.90;99.90;;;;;;4980532;28;20052;-91
2023/08/06 11:35:18;;;;;;;0.90;0.90;;;23.30;99.90;;;;;;4958437;28;20125;-94
2023/08/06 11:37:47;;;;;;;0.30;0.30;;;23.30;99.90;;;;;;4963606;28;20049;-92
2023/08/06 11:40:15;;;;;;;0.70;0.70;;;23.80;99.90;;;;;;4979605;28;20053;-91
2023/08/06 11:42:47;;;;;;;0.30;0.30;;;23.90;99.90;;;;;;4977803;28;20158;-95
2023/08/06 11:45:13;;;;;;;0.70;0.70;;;23.70;99.90;;;;;;4960234;28;20120;-89
2023/08/06 11:47:41;;;;;;;0.30;0.30;;;24.00;99.90;;;;;;4976759;28;20085;-89
2023/08/06 11:50:07;;;;;;;0.30;0.30;;;24.60;99.90;;;;;;4965475;28;20054;-93
2023/08/06 11:52:33;;;;;;;0.70;0.70;;;24.50;99.90;;;;;;4974657;28;20054;-92
2023/08/06 11:55:10;;;;;;;0.30;0.30;;;24.50;99.90;;;;;;4968836;28;20043;-92
2023/08/06 11:57:36;;;;;;;0.30;0.30;;;24.60;99.90;;;;;;4956924;28;20489;-91
2023/08/06 12:00:23;;;;;;;0.30;0.30;;;24.40;99.90;;;;;;4955126;28;20042;-91
2023/08/06 12:02:51;;;;;;;0.30;0.30;;;24.20;99.90;;;;;;4984674;28;20081;-92
2023/08/06 12:05:23;;;;;;;0.30;0.30;;;24.70;99.90;;;;;;4964860;28;20038;-89
2023/08/06 12:07:52;;;;;;;0.30;0.30;;;24.90;99.90;;;;;;4967586;28;20070;-90
2023/08/06 12:10:20;;;;;;;0.30;0.30;;;24.60;99.90;;;;;;4966250;28;20185;-94
2023/08/06 12:12:52;;;;;;;0.30;0.30;;;24.10;99.90;;;;;;4973571;28;20091;-91
2023/08/06 12:15:18;;;;;;;0.30;0.30;;;23.40;99.90;;;;;;4971236;28;20074;-88
2023/08/06 12:17:44;;;;;;;0.40;0.40;;;23.30;99.90;;;;;;4951832;28;20050;-90
2023/08/06 12:20:10;;;;;;;0.30;0.30;;;23.10;99.90;;;;;;4953699;28;20044;-89
2023/08/06 12:22:39;;;;;;;0.30;0.30;;;22.90;99.90;;;;;;4971476;28;20051;-93
2023/08/06 12:25:12;;;;;;;0.30;0.30;;;22.10;99.90;;;;;;4952405;28;20524;-87
2023/08/06 12:27:39;;;;;;;0.30;0.30;;;21.50;99.90;;;;;;4964704;28;20039;-85
2023/08/06 12:30:06;;;;;;;0.63;0.63;;;20.90;99.90;;;;;;4967527;28;20213;-83
2023/08/06 12:32:33;;;;;;;0.50;0.50;;;20.40;99.90;;;;;;4973248;28;20051;-83
2023/08/06 12:34:58;;;;;;;0.50;0.50;;;19.80;99.90;;;;;;4969481;28;20081;-83
2023/08/06 12:37:25;;;;;;;0.68;0.68;;;19.60;99.90;;;;;;4968274;28;20069;-83
2023/08/06 12:39:50;;;;;;;0.50;0.50;;;19.00;99.90;;;;;;4969425;28;20042;-84
2023/08/06 12:42:16;;;;;;;0.40;0.40;;;19.20;99.90;;;;;;4953116;28;20057;-85
2023/08/06 12:44:42;;;;;;;0.50;0.50;;;19.00;99.90;;;;;;4973012;28;20643;-84
2023/08/06 12:47:08;;;;;;;0.40;0.40;;;19.40;99.90;;;;;;4974055;28;20054;-85
2023/08/06 12:49:33;;;;;;;0.40;0.40;;;19.40;99.90;;;;;;4987457;28;20046;-85
2023/08/06 12:52:02;;;;;;;0.40;0.40;;;19.40;99.90;;;;;;4966614;28;20496;-84
2023/08/06 12:54:28;;;;;;;0.40;0.40;;;19.50;99.90;;;;;;4964828;28;20050;-85